Oran, IA (50664)

9:32 AM CST on January 30, 2015 (GMT -0600)
Maplewood Dr | Change Station
CLOSE
Current Station
Personal Weather Station
Location: Oelwein, IA
Elevation: 1135 ft
Nearby Weather Stations

Elev 1135 ft 42.69 °N, 91.91 °W | Updated 6 seconds ago

Clear
Clear
16.6 °F
Feels Like 17 °F
N
1.6
Wind Variable Wind from East
Gusts 2.7 mph

Today
High -- | Low -- °F
--% Chance of Precip.
Yesterday
High -- | Low -- °F
Precip. -- in
7:24 AM 5:17 PM
Waxing Gibbous, 83% visible
Pressure 30.53 in
Visibility 10.0 miles
Clouds Few 14000 ft
Windchill 17 °F
Dew Point 11 °F
Humidity 78%
Rainfall 0.00 in
Snow Depth Not available.
UV 1 out of 12
Pollen .10 out of 12
Air Quality Not available.
Flu Activity Not available.
METAR KOLZ 301515Z AUTO 04004KT 10SM FEW140 M09/M13 A3053 RMK AO2

More Conditions Fewer Conditions

Pressure 30.53 in
Visibility 10.0 miles
Clouds Few 14000 ft
Windchill 17 °F
Dew Point 11 °F
Humidity 78%
Rainfall 0.00 in
Snow Depth Not available.
UV 1 out of 12
Pollen .10 out of 12
Air Quality Not available.
Flu Activity Not available.
METAR KOLZ 301515Z AUTO 04004KT 10SM FEW140 M09/M13 A3053 RMK AO2

More Conditions Fewer Conditions

10-Day Weather Forecast

Almanac

Astronomy

Jan. 30, 2015 Rise Set
Actual Time
Civil Twilight
Nautical Twilight
Astronomical Twilight
Moon
Length of Visible Light
Length of Day
Tomorrow will be .
, % of the Moon is Illuminated

Today's Extremes

State Highs State Lows

Community

WunderPhotos

Upload Photos

1,791,791 photos uploaded!

WunderBlogs® & News

Nearby

Air Quality

  Air Quality AQ Index Pollutant
Not available.

Snow Depth

Station Depth Elevation

Earthquake Activity

City Distance Mag. Time & Date
Minimum magnitude displayed is 2.5.

Coastal Water Temperatures

Place Temperature

Nearby Weather Stations